createdAt,value
2018-03-11T00:00:53.122Z,96.75
2018-03-11T00:03:21.238Z,96.80
2018-03-11T00:05:49.293Z,97.00
2018-03-11T00:08:17.863Z,96.99
2018-03-11T00:10:45.912Z,96.94
2018-03-11T00:13:13.930Z,96.73
2018-03-11T00:15:41.933Z,96.75
2018-03-11T00:18:09.994Z,96.56
2018-03-11T00:20:38.082Z,96.35
2018-03-11T00:23:06.158Z,96.50
2018-03-11T00:25:34.226Z,96.26
2018-03-11T00:28:02.420Z,96.16
2018-03-11T00:30:30.441Z,96.11
2018-03-11T00:32:58.446Z,96.55
2018-03-11T00:35:27.197Z,96.45
2018-03-11T00:37:55.405Z,95.72
2018-03-11T00:40:23.462Z,96.29
2018-03-11T00:42:51.627Z,95.95
2018-03-11T00:45:19.733Z,96.08
2018-03-11T00:47:47.976Z,96.51
2018-03-11T00:50:16.476Z,96.69
2018-03-11T00:52:44.799Z,96.78
2018-03-11T00:55:12.880Z,96.66
2018-03-11T00:57:40.908Z,96.62
2018-03-11T01:00:08.939Z,96.33
2018-03-11T01:02:37.107Z,96.47
2018-03-11T01:05:05.836Z,96.64
2018-03-11T01:07:33.958Z,96.77
2018-03-11T01:10:02.046Z,96.37
2018-03-11T01:12:30.791Z,96.84
2018-03-11T01:14:58.847Z,96.99
2018-03-11T01:17:26.932Z,96.81
2018-03-11T01:19:55.068Z,96.62
2018-03-11T01:22:23.096Z,96.70
2018-03-11T01:24:51.359Z,96.75
2018-03-11T01:27:19.387Z,96.46
2018-03-11T01:29:47.677Z,96.97
2018-03-11T01:32:15.689Z,96.76
2018-03-11T01:34:43.744Z,96.87
2018-03-11T01:37:11.771Z,96.84
2018-03-11T01:39:39.845Z,97.20
2018-03-11T01:42:07.876Z,97.68
2018-03-11T01:44:35.904Z,97.76
2018-03-11T01:47:04.059Z,97.57
2018-03-11T01:49:32.113Z,97.70
2018-03-11T01:52:00.104Z,97.80
2018-03-11T01:54:28.156Z,97.45
2018-03-11T01:56:56.246Z,97.66
2018-03-11T01:59:24.381Z,97.77
2018-03-11T02:01:52.458Z,97.56
2018-03-11T02:04:20.476Z,97.77
2018-03-11T02:06:48.466Z,98.01
2018-03-11T02:09:16.500Z,98.12
2018-03-11T02:11:44.496Z,97.98
2018-03-11T02:14:12.528Z,97.96
2018-03-11T02:16:40.570Z,97.74
2018-03-11T02:19:08.604Z,97.71
2018-03-11T02:21:36.762Z,97.51
2018-03-11T02:24:04.847Z,97.55
2018-03-11T02:26:33.471Z,97.37
2018-03-11T02:29:01.943Z,97.42
2018-03-11T02:31:29.986Z,97.50
2018-03-11T02:33:58.073Z,97.49
2018-03-11T02:36:26.175Z,97.65
2018-03-11T02:38:54.213Z,97.71
2018-03-11T02:41:22.296Z,97.96
2018-03-11T02:43:50.388Z,98.26
2018-03-11T02:46:18.418Z,98.23
2018-03-11T02:48:46.917Z,98.40
2018-03-11T02:51:14.977Z,98.77
2018-03-11T02:53:43.092Z,98.83
2018-03-11T02:56:11.209Z,98.75
2018-03-11T02:58:39.259Z,98.76
2018-03-11T03:01:07.331Z,98.84
2018-03-11T03:03:36.032Z,99.06
2018-03-11T03:06:04.279Z,99.40
2018-03-11T03:08:32.463Z,99.74
2018-03-11T03:11:00.575Z,99.85
2018-03-11T03:13:28.574Z,99.99
2018-03-11T03:15:57.167Z,100.16
2018-03-11T03:18:25.229Z,100.20
2018-03-11T03:20:53.333Z,100.16
2018-03-11T03:23:21.398Z,100.06
2018-03-11T03:25:49.733Z,99.99
2018-03-11T03:28:17.797Z,99.45
2018-03-11T03:30:45.922Z,99.16
2018-03-11T03:33:13.928Z,99.01
2018-03-11T03:35:42.026Z,98.97
2018-03-11T03:38:11.016Z,98.88
2018-03-11T03:40:39.080Z,98.72
2018-03-11T03:43:07.171Z,98.71
2018-03-11T03:45:35.317Z,98.19
2018-03-11T03:48:03.404Z,98.29
2018-03-11T03:50:31.491Z,98.39
2018-03-11T03:52:59.577Z,99.01
2018-03-11T03:55:27.614Z,99.26
2018-03-11T03:57:55.667Z,99.22
2018-03-11T04:00:23.687Z,99.06
2018-03-11T04:02:51.785Z,98.69
2018-03-11T04:05:19.807Z,98.77
2018-03-11T04:07:47.870Z,98.76
2018-03-11T04:10:15.901Z,99.00
2018-03-11T04:12:43.990Z,98.98
2018-03-11T04:15:12.316Z,99.24
2018-03-11T04:17:40.358Z,99.26
2018-03-11T04:20:08.428Z,99.22
2018-03-11T04:22:36.492Z,99.42
2018-03-11T04:25:04.534Z,99.29
2018-03-11T04:27:32.582Z,99.12
2018-03-11T04:30:00.635Z,98.81
2018-03-11T04:32:28.749Z,98.80
2018-03-11T04:34:56.758Z,98.63
2018-03-11T04:37:25.392Z,98.78
2018-03-11T04:39:53.402Z,98.87
2018-03-11T04:42:21.477Z,99.01
2018-03-11T04:44:49.535Z,98.72
2018-03-11T04:47:17.555Z,99.24
2018-03-11T04:49:46.246Z,99.28
2018-03-11T04:52:14.589Z,99.56
2018-03-11T04:54:42.653Z,99.64
2018-03-11T04:57:10.701Z,99.82
2018-03-11T04:59:38.747Z,99.70
2018-03-11T05:02:06.810Z,99.37
2018-03-11T05:04:35.416Z,99.57
2018-03-11T05:07:03.467Z,99.09
2018-03-11T05:09:31.561Z,99.15
2018-03-11T05:11:59.672Z,98.97
2018-03-11T05:14:27.734Z,98.82
2018-03-11T05:16:55.806Z,98.43
2018-03-11T05:19:23.887Z,98.49
2018-03-11T05:21:51.930Z,98.32
2018-03-11T05:24:20.075Z,98.74
2018-03-11T05:26:48.102Z,98.89
2018-03-11T05:29:16.172Z,98.98
2018-03-11T05:31:44.234Z,98.95
2018-03-11T05:34:12.272Z,98.54
2018-03-11T05:36:40.304Z,98.40
2018-03-11T05:39:08.390Z,98.61
2018-03-11T05:41:36.441Z,98.53
2018-03-11T05:44:04.500Z,98.55
2018-03-11T05:46:32.561Z,98.32
2018-03-11T05:49:00.582Z,98.35
2018-03-11T05:51:29.413Z,98.32
2018-03-11T05:53:58.120Z,98.56
2018-03-11T05:56:26.191Z,98.47
2018-03-11T05:58:54.335Z,98.29
2018-03-11T06:01:22.369Z,98.39
2018-03-11T06:03:50.418Z,98.18
2018-03-11T06:06:18.426Z,98.00
2018-03-11T06:08:46.482Z,97.47
2018-03-11T06:11:14.522Z,97.79
2018-03-11T06:13:42.734Z,97.82
2018-03-11T06:16:10.746Z,97.93
2018-03-11T06:18:38.816Z,97.97
2018-03-11T06:21:08.115Z,98.10
2018-03-11T06:23:36.931Z,98.25
2018-03-11T06:26:04.996Z,97.61
2018-03-11T06:28:33.174Z,97.53
2018-03-11T06:31:01.250Z,97.12
2018-03-11T06:33:29.331Z,97.08
2018-03-11T06:35:57.402Z,97.03
2018-03-11T06:38:25.435Z,97.07
2018-03-11T06:40:53.439Z,96.52
2018-03-11T06:43:21.503Z,96.54
2018-03-11T06:45:49.548Z,96.11
2018-03-11T06:48:17.578Z,96.03
2018-03-11T06:50:45.641Z,96.25
2018-03-11T06:53:13.695Z,95.95
2018-03-11T06:55:41.733Z,96.19
2018-03-11T06:58:09.856Z,96.09
2018-03-11T07:00:37.898Z,95.99
2018-03-11T07:03:05.971Z,95.62
2018-03-11T07:05:33.978Z,94.99
2018-03-11T07:08:02.048Z,94.96
2018-03-11T07:10:30.227Z,94.88
2018-03-11T07:12:58.268Z,94.54
2018-03-11T07:15:27.053Z,94.27
2018-03-11T07:17:55.141Z,94.18
2018-03-11T07:20:23.190Z,94.09
2018-03-11T07:22:51.234Z,94.46
2018-03-11T07:25:19.241Z,93.91
2018-03-11T07:27:47.297Z,94.01
2018-03-11T07:30:15.313Z,93.98
2018-03-11T07:32:43.350Z,94.29
2018-03-11T07:35:11.454Z,94.46
2018-03-11T07:37:39.491Z,93.98
2018-03-11T07:40:07.493Z,94.18
2018-03-11T07:42:35.524Z,94.00
2018-03-11T07:45:03.533Z,92.76
2018-03-11T07:47:31.617Z,92.17
2018-03-11T07:49:59.648Z,93.01
2018-03-11T07:52:27.687Z,90.92
2018-03-11T07:54:55.789Z,88.95
2018-03-11T07:57:23.923Z,88.45
2018-03-11T07:59:51.939Z,88.18
2018-03-11T08:02:19.968Z,89.43
2018-03-11T08:04:47.972Z,89.51
2018-03-11T08:07:16.027Z,89.73
2018-03-11T08:09:44.047Z,90.03
2018-03-11T08:12:12.064Z,90.31
2018-03-11T08:14:40.082Z,90.94
2018-03-11T08:17:08.110Z,90.19
2018-03-11T08:19:36.126Z,90.31
2018-03-11T08:22:04.273Z,91.04
2018-03-11T08:24:32.314Z,91.05
2018-03-11T08:27:00.373Z,91.61
2018-03-11T08:29:28.572Z,91.08
2018-03-11T08:31:56.630Z,91.26
2018-03-11T08:34:24.830Z,91.35
2018-03-11T08:36:53.139Z,91.10
2018-03-11T08:39:21.174Z,91.34
2018-03-11T08:41:49.227Z,92.00
2018-03-11T08:44:17.264Z,91.85
2018-03-11T08:46:45.302Z,91.80
2018-03-11T08:49:13.332Z,91.64
2018-03-11T08:51:41.436Z,92.18
2018-03-11T08:54:09.473Z,92.69
2018-03-11T08:56:37.506Z,92.69
2018-03-11T08:59:05.562Z,92.09
2018-03-11T09:01:33.641Z,92.28
2018-03-11T09:04:01.836Z,92.05
2018-03-11T09:06:29.938Z,91.63
2018-03-11T09:08:57.939Z,91.42
2018-03-11T09:11:26.228Z,91.61
2018-03-11T09:13:56.153Z,90.98
2018-03-11T09:16:24.248Z,90.89
2018-03-11T09:18:52.314Z,90.64
2018-03-11T09:21:20.388Z,89.68
2018-03-11T09:23:48.429Z,89.79
2018-03-11T09:26:16.532Z,89.35
2018-03-11T09:28:44.554Z,89.14
2018-03-11T09:31:12.599Z,88.54
2018-03-11T09:33:42.619Z,88.54
2018-03-11T09:36:10.734Z,87.86
2018-03-11T09:38:38.865Z,88.76
2018-03-11T09:41:06.872Z,88.27
2018-03-11T09:43:35.033Z,87.54
2018-03-11T09:46:03.870Z,87.26
2018-03-11T09:48:31.967Z,86.99
2018-03-11T09:51:00.039Z,86.99
2018-03-11T09:53:28.167Z,87.46
2018-03-11T09:55:56.227Z,87.46
2018-03-11T09:58:24.845Z,86.84
2018-03-11T10:00:53.173Z,86.46
2018-03-11T10:03:21.366Z,86.17
2018-03-11T10:05:49.423Z,86.17
2018-03-11T10:08:17.817Z,86.21
2018-03-11T10:10:45.888Z,85.35
2018-03-11T10:13:13.912Z,84.33
2018-03-11T10:15:41.956Z,82.13
2018-03-11T10:18:09.947Z,78.50
2018-03-11T10:20:38.006Z,76.20
2018-03-11T10:23:06.048Z,74.02
2018-03-11T10:25:34.110Z,71.23
2018-03-11T10:28:02.134Z,69.89
2018-03-11T10:30:30.154Z,69.04
2018-03-11T10:32:58.187Z,68.23
2018-03-11T10:35:26.218Z,67.36
2018-03-11T10:37:54.227Z,66.31
2018-03-11T10:40:22.730Z,65.55
2018-03-11T10:42:50.750Z,64.69
2018-03-11T10:45:18.795Z,63.30
2018-03-11T10:47:46.808Z,62.47
2018-03-11T10:50:14.823Z,60.51
2018-03-11T10:52:42.811Z,60.58
2018-03-11T10:55:10.925Z,60.25
2018-03-11T10:57:38.951Z,60.60
2018-03-11T11:00:06.961Z,60.08
2018-03-11T11:02:37.092Z,61.23
2018-03-11T11:05:05.158Z,62.74
2018-03-11T11:07:33.208Z,61.54
2018-03-11T11:10:01.207Z,61.27
2018-03-11T11:12:30.199Z,60.12
2018-03-11T11:14:58.309Z,61.18
2018-03-11T11:17:26.650Z,61.27
2018-03-11T11:19:54.875Z,60.57
2018-03-11T11:22:22.898Z,60.31
2018-03-11T11:24:50.903Z,60.60
2018-03-11T11:27:19.008Z,60.27
2018-03-11T11:29:47.119Z,61.01
2018-03-11T11:32:15.129Z,60.54
2018-03-11T11:34:43.122Z,61.26
2018-03-11T11:37:11.155Z,61.87
2018-03-11T11:39:39.204Z,61.67
2018-03-11T11:42:07.227Z,59.75
2018-03-11T11:44:35.296Z,58.61
2018-03-11T11:47:03.295Z,59.41
2018-03-11T11:49:31.343Z,60.90
2018-03-11T11:51:59.363Z,63.19
2018-03-11T11:54:27.367Z,63.45
2018-03-11T11:56:55.399Z,64.74
2018-03-11T11:59:23.408Z,65.40
2018-03-11T12:01:52.252Z,64.05
2018-03-11T12:04:20.337Z,65.02
2018-03-11T12:06:48.357Z,65.17
2018-03-11T12:09:16.401Z,65.52
2018-03-11T12:11:44.470Z,64.47
2018-03-11T12:14:12.461Z,63.09
2018-03-11T12:16:40.493Z,63.40
2018-03-11T12:19:08.550Z,64.20
2018-03-11T12:21:36.621Z,62.82
2018-03-11T12:24:04.683Z,62.43
2018-03-11T12:26:32.668Z,62.41
2018-03-11T12:29:00.666Z,62.47
2018-03-11T12:31:28.747Z,62.44
2018-03-11T12:33:56.745Z,61.67
2018-03-11T12:36:24.750Z,60.31
2018-03-11T12:38:52.773Z,59.41
2018-03-11T12:41:20.849Z,60.10
2018-03-11T12:43:48.892Z,61.40
2018-03-11T12:46:17.015Z,62.21
2018-03-11T12:48:45.094Z,61.84
2018-03-11T12:51:13.693Z,61.93
2018-03-11T12:53:41.698Z,62.60
2018-03-11T12:56:09.759Z,63.31
2018-03-11T12:58:37.770Z,63.24
2018-03-11T13:01:05.774Z,63.89
2018-03-11T13:03:33.801Z,63.18
2018-03-11T13:06:01.825Z,62.79
2018-03-11T13:08:29.865Z,63.31
2018-03-11T13:10:57.926Z,64.13
2018-03-11T13:13:25.938Z,65.95
2018-03-11T13:15:53.957Z,66.51
2018-03-11T13:18:22.009Z,67.16
2018-03-11T13:21:01.642Z,67.03
2018-03-11T13:23:29.757Z,66.40
2018-03-11T13:25:57.746Z,66.23
2018-03-11T13:28:37.573Z,65.62
2018-03-11T13:31:05.611Z,66.70
2018-03-11T13:33:45.410Z,67.05
2018-03-11T13:36:13.546Z,69.06
2018-03-11T13:38:53.306Z,69.64
2018-03-11T13:41:21.292Z,70.38
2018-03-11T13:43:49.338Z,70.37
2018-03-11T13:46:29.063Z,71.11
2018-03-11T13:48:57.103Z,71.76
2018-03-11T13:51:37.107Z,71.71
2018-03-11T13:54:05.149Z,72.06
2018-03-11T13:56:33.135Z,71.49
2018-03-11T13:59:01.123Z,71.61
2018-03-11T14:01:29.195Z,70.64
2018-03-11T14:03:57.206Z,70.10
2018-03-11T14:06:25.227Z,69.62
2018-03-11T14:08:53.382Z,69.82
2018-03-11T14:11:21.484Z,68.92
2018-03-11T14:13:49.981Z,69.48
2018-03-11T14:16:17.962Z,69.36
2018-03-11T14:18:45.998Z,69.20
2018-03-11T14:21:14.097Z,69.56
2018-03-11T14:23:42.145Z,69.16
2018-03-11T14:26:10.155Z,68.41
2018-03-11T14:28:38.166Z,68.30
2018-03-11T14:31:06.185Z,68.13
2018-03-11T14:33:34.250Z,67.22
2018-03-11T14:36:02.276Z,67.04
2018-03-11T14:38:31.413Z,66.54
2018-03-11T14:40:59.619Z,66.56
2018-03-11T14:43:27.632Z,66.00
2018-03-11T14:45:55.662Z,66.40
2018-03-11T14:48:23.687Z,67.01
2018-03-11T14:50:51.730Z,66.58
2018-03-11T14:53:19.710Z,67.59
2018-03-11T14:55:47.732Z,67.66
2018-03-11T14:58:15.746Z,67.81
2018-03-11T15:00:43.755Z,68.07
2018-03-11T15:03:11.805Z,68.30
2018-03-11T15:05:39.821Z,68.38
2018-03-11T15:08:07.834Z,69.01
2018-03-11T15:10:35.869Z,68.68
2018-03-11T15:13:03.882Z,69.31
2018-03-11T15:15:31.953Z,69.22
2018-03-11T15:17:59.953Z,69.87
2018-03-11T15:20:28.007Z,69.87
2018-03-11T15:22:56.030Z,69.74
2018-03-11T15:25:24.100Z,69.93
2018-03-11T15:27:52.103Z,70.20
2018-03-11T15:30:20.163Z,71.00
2018-03-11T15:32:48.183Z,70.81
2018-03-11T15:35:16.207Z,70.87
2018-03-11T15:37:44.268Z,70.86
2018-03-11T15:40:12.284Z,71.04
2018-03-11T15:42:40.333Z,70.59
2018-03-11T15:45:08.332Z,70.64
2018-03-11T15:47:36.435Z,71.38
2018-03-11T15:50:04.444Z,72.12
2018-03-11T15:52:32.518Z,71.64
2018-03-11T15:55:00.519Z,72.13
2018-03-11T15:57:28.612Z,72.60
2018-03-11T15:59:56.667Z,71.89
2018-03-11T16:02:24.738Z,72.00
2018-03-11T16:04:52.738Z,72.76
2018-03-11T16:07:20.771Z,72.63
2018-03-11T16:09:48.783Z,73.05
2018-03-11T16:12:16.832Z,73.34
2018-03-11T16:14:44.827Z,74.02
2018-03-11T16:17:12.852Z,73.93
2018-03-11T16:19:40.841Z,74.01
2018-03-11T16:22:08.869Z,74.24
2018-03-11T16:24:39.724Z,74.31
2018-03-11T16:27:04.904Z,74.83
2018-03-11T16:29:32.979Z,74.83
2018-03-11T16:32:01.004Z,75.39
2018-03-11T16:34:29.035Z,75.55
2018-03-11T16:36:57.023Z,75.61
2018-03-11T16:39:25.032Z,75.67
2018-03-11T16:41:53.033Z,75.78
2018-03-11T16:44:21.071Z,76.01
2018-03-11T16:46:49.147Z,76.67
2018-03-11T16:49:17.154Z,76.34
2018-03-11T16:51:45.171Z,76.50
2018-03-11T16:54:13.215Z,76.03
2018-03-11T16:56:41.227Z,76.26
2018-03-11T16:59:09.254Z,76.73
2018-03-11T17:01:37.258Z,76.88
2018-03-11T17:04:05.302Z,77.33
2018-03-11T17:06:33.361Z,77.65
2018-03-11T17:09:01.334Z,77.67
2018-03-11T17:11:29.342Z,77.27
2018-03-11T17:13:57.350Z,78.44
2018-03-11T17:16:25.353Z,78.63
2018-03-11T17:18:53.350Z,78.85
2018-03-11T17:21:21.397Z,78.84
2018-03-11T17:23:49.740Z,79.19
2018-03-11T17:26:17.776Z,79.68
2018-03-11T17:28:45.791Z,79.88
2018-03-11T17:31:13.854Z,79.60
2018-03-11T17:33:42.572Z,79.85
2018-03-11T17:36:10.583Z,79.85
2018-03-11T17:38:38.632Z,80.38
2018-03-11T17:41:06.688Z,80.61
2018-03-11T17:43:34.738Z,81.20
2018-03-11T17:46:03.343Z,80.96
2018-03-11T17:48:31.342Z,80.92
2018-03-11T17:50:59.346Z,80.55
2018-03-11T17:53:27.430Z,80.76
2018-03-11T17:55:56.569Z,80.62
2018-03-11T17:58:24.833Z,80.91
2018-03-11T18:00:52.864Z,80.66
2018-03-11T18:03:21.036Z,80.91
2018-03-11T18:05:49.650Z,81.01
2018-03-11T18:08:17.769Z,81.08
2018-03-11T18:10:45.831Z,80.91
2018-03-11T18:13:16.564Z,80.97
2018-03-11T18:15:44.935Z,81.17
2018-03-11T18:18:13.147Z,79.20
2018-03-11T18:20:41.277Z,79.57
2018-03-11T18:23:09.337Z,80.19
2018-03-11T18:25:37.431Z,80.20
2018-03-11T18:28:06.541Z,80.92
2018-03-11T18:30:34.596Z,80.49
2018-03-11T18:33:02.649Z,80.91
2018-03-11T18:35:30.755Z,81.09
2018-03-11T18:37:59.128Z,81.20
2018-03-11T18:40:27.168Z,81.00
2018-03-11T18:42:55.226Z,81.25
2018-03-11T18:45:23.587Z,81.14
2018-03-11T18:47:51.652Z,81.49
2018-03-11T18:50:19.657Z,80.93
2018-03-11T18:52:47.681Z,81.32
2018-03-11T18:55:15.740Z,81.83
2018-03-11T18:57:43.846Z,81.46
2018-03-11T19:00:11.898Z,81.64
2018-03-11T19:02:39.988Z,81.44
2018-03-11T19:05:07.975Z,81.26
2018-03-11T19:07:36.070Z,81.02
2018-03-11T19:10:04.099Z,81.69
2018-03-11T19:12:32.968Z,82.04
2018-03-11T19:15:00.962Z,82.17
2018-03-11T19:17:29.066Z,81.80
2018-03-11T19:19:57.084Z,82.13
2018-03-11T19:22:25.172Z,82.22
2018-03-11T19:24:54.683Z,82.17
2018-03-11T19:27:22.719Z,81.99
2018-03-11T19:29:50.785Z,81.99
2018-03-11T19:32:18.826Z,81.58
2018-03-11T19:34:46.861Z,81.72
2018-03-11T19:37:15.146Z,81.62
2018-03-11T19:39:43.327Z,82.52
2018-03-11T19:42:11.325Z,81.63
2018-03-11T19:44:39.365Z,81.00
2018-03-11T19:47:07.706Z,79.88
2018-03-11T19:49:35.764Z,80.42
2018-03-11T19:52:03.818Z,80.90
2018-03-11T19:54:31.822Z,82.02
2018-03-11T19:56:59.846Z,81.63
2018-03-11T19:59:27.871Z,81.83
2018-03-11T20:01:55.882Z,81.47
2018-03-11T20:04:23.875Z,81.96
2018-03-11T20:06:51.923Z,82.08
2018-03-11T20:09:19.984Z,82.57
2018-03-11T20:11:48.087Z,82.39
2018-03-11T20:14:16.089Z,83.13
2018-03-11T20:16:44.143Z,82.97
2018-03-11T20:19:12.570Z,82.91
2018-03-11T20:21:40.589Z,83.07
2018-03-11T20:24:08.619Z,83.52
2018-03-11T20:26:36.620Z,83.57
2018-03-11T20:29:04.638Z,83.71
2018-03-11T20:31:32.744Z,83.39
2018-03-11T20:34:00.757Z,83.94
2018-03-11T20:36:28.821Z,84.19
2018-03-11T20:38:56.890Z,84.01
2018-03-11T20:41:25.005Z,84.38
2018-03-11T20:43:53.039Z,83.87
2018-03-11T20:46:21.170Z,84.63
2018-03-11T20:48:49.251Z,84.73
2018-03-11T20:51:17.290Z,84.78
2018-03-11T20:53:45.313Z,84.45
2018-03-11T20:56:13.366Z,84.51
2018-03-11T20:58:41.494Z,83.78
2018-03-11T21:01:09.531Z,84.19
2018-03-11T21:03:37.696Z,84.21
2018-03-11T21:06:05.728Z,83.58
2018-03-11T21:08:33.805Z,84.16
2018-03-11T21:11:02.184Z,84.63
2018-03-11T21:13:30.240Z,84.95
2018-03-11T21:15:58.246Z,84.82
2018-03-11T21:18:26.500Z,84.67
2018-03-11T21:20:54.687Z,84.61
2018-03-11T21:23:22.772Z,84.18
2018-03-11T21:25:50.782Z,84.35
2018-03-11T21:28:18.843Z,84.19
2018-03-11T21:30:46.899Z,84.53
2018-03-11T21:33:14.917Z,84.75
2018-03-11T21:35:42.957Z,85.03
2018-03-11T21:38:10.976Z,85.04
2018-03-11T21:40:39.661Z,84.82
2018-03-11T21:43:07.720Z,85.07
2018-03-11T21:45:37.836Z,85.71
2018-03-11T21:48:06.011Z,85.16
2018-03-11T21:50:34.110Z,84.99
2018-03-11T21:53:02.186Z,85.22
2018-03-11T21:55:30.223Z,85.36
2018-03-11T21:57:58.283Z,85.16
2018-03-11T22:00:26.314Z,85.51
2018-03-11T22:02:54.705Z,85.50
2018-03-11T22:05:23.350Z,85.50
2018-03-11T22:07:51.366Z,85.47
2018-03-11T22:10:19.457Z,85.02
2018-03-11T22:12:47.549Z,85.44
2018-03-11T22:15:15.608Z,85.39
2018-03-11T22:17:43.719Z,85.50
2018-03-11T22:20:12.370Z,85.94
2018-03-11T22:22:40.530Z,86.04
2018-03-11T22:25:08.566Z,86.00
2018-03-11T22:27:37.236Z,86.00
2018-03-11T22:30:05.259Z,85.56
2018-03-11T22:32:33.323Z,85.80
2018-03-11T22:35:01.396Z,85.88
2018-03-11T22:37:29.425Z,85.77
2018-03-11T22:39:57.433Z,85.40
2018-03-11T22:42:25.511Z,85.58
2018-03-11T22:44:53.615Z,85.62
2018-03-11T22:47:21.748Z,85.46
2018-03-11T22:49:49.734Z,85.75
2018-03-11T22:52:17.766Z,85.61
2018-03-11T22:54:45.799Z,85.42
2018-03-11T22:57:13.834Z,85.31
2018-03-11T22:59:41.874Z,85.15
2018-03-11T23:02:10.103Z,85.05
2018-03-11T23:04:38.185Z,85.34
2018-03-11T23:07:06.290Z,85.35
2018-03-11T23:09:34.509Z,85.45
2018-03-11T23:12:04.210Z,85.52
2018-03-11T23:14:32.251Z,85.49
2018-03-11T23:17:00.318Z,85.50
2018-03-11T23:19:28.673Z,85.58
2018-03-11T23:21:57.756Z,85.64
2018-03-11T23:24:26.071Z,85.87
2018-03-11T23:26:54.110Z,86.07
2018-03-11T23:29:22.114Z,85.75
2018-03-11T23:31:50.121Z,86.10
2018-03-11T23:34:18.154Z,86.58
2018-03-11T23:36:46.222Z,86.74
2018-03-11T23:39:14.228Z,86.61
2018-03-11T23:41:42.270Z,86.32
2018-03-11T23:44:10.269Z,86.25
2018-03-11T23:46:38.340Z,86.58
2018-03-11T23:49:06.380Z,86.67
2018-03-11T23:51:34.444Z,86.59
2018-03-11T23:54:02.462Z,86.58
2018-03-11T23:56:31.086Z,86.58
2018-03-11T23:58:59.106Z,86.22
